createdAt,value
2022-09-21T00:00:35.717Z,97744.31
2022-09-21T00:03:03.822Z,97736.34
2022-09-21T00:05:31.882Z,97734.44
2022-09-21T00:08:01.013Z,97723.78
2022-09-21T00:10:30.507Z,97738.09
2022-09-21T00:12:59.057Z,97726.56
2022-09-21T00:15:27.210Z,97733.75
2022-09-21T00:17:55.345Z,97722.03
2022-09-21T00:20:23.422Z,97727.50
2022-09-21T00:22:51.675Z,97730.19
2022-09-21T00:25:19.961Z,97735.56
2022-09-21T00:27:51.465Z,97739.91
2022-09-21T00:30:19.962Z,97731.94
2022-09-21T00:32:48.097Z,97743.53
2022-09-21T00:35:16.246Z,97747.19
2022-09-21T00:37:44.287Z,97750.75
2022-09-21T00:40:12.486Z,97743.53
2022-09-21T00:42:40.578Z,97743.53
2022-09-21T00:45:21.046Z,97752.56
2022-09-21T00:47:50.058Z,97750.81
2022-09-21T00:50:20.094Z,97757.94
2022-09-21T00:52:49.910Z,97758.88
2022-09-21T00:55:19.905Z,97751.69
2022-09-21T00:57:48.203Z,97749.09
2022-09-21T01:00:17.675Z,97748.13
2022-09-21T01:02:45.745Z,97745.56
2022-09-21T01:05:13.887Z,97749.22
2022-09-21T01:07:44.370Z,97755.53
2022-09-21T01:10:14.118Z,97751.97
2022-09-21T01:12:51.936Z,97747.56
2022-09-21T01:15:30.453Z,97744.00
2022-09-21T01:18:01.940Z,97748.50
2022-09-21T01:21:09.046Z,97744.97
2022-09-21T01:23:48.013Z,97744.00
2022-09-21T01:26:18.754Z,97741.31
2022-09-21T01:29:19.866Z,97739.59
2022-09-21T01:31:50.949Z,97738.63
2022-09-21T01:34:24.977Z,97745.81
2022-09-21T01:36:53.121Z,97744.09
2022-09-21T01:39:21.900Z,97756.56
2022-09-21T01:41:50.925Z,97758.41
2022-09-21T01:44:21.948Z,97754.06
2022-09-21T01:46:50.152Z,97756.75
2022-09-21T01:49:19.222Z,97756.75
2022-09-21T01:51:49.688Z,97754.94
2022-09-21T01:54:21.765Z,97754.94
2022-09-21T01:56:52.010Z,97752.31
2022-09-21T01:59:23.596Z,97755.00
2022-09-21T02:01:54.258Z,97750.50
2022-09-21T02:04:22.423Z,97747.94
2022-09-21T02:06:50.629Z,97755.00
2022-09-21T02:09:18.733Z,97756.88
2022-09-21T02:11:46.821Z,97747.81
2022-09-21T02:14:18.229Z,97752.31
2022-09-21T02:16:49.398Z,97744.38
2022-09-21T02:19:22.176Z,97747.94
2022-09-21T02:21:58.525Z,97746.19
2022-09-21T02:24:31.637Z,97748.03
2022-09-21T02:27:03.909Z,97745.34
2022-09-21T02:29:38.229Z,97740.91
2022-09-21T02:32:10.210Z,97750.88
2022-09-21T02:34:45.801Z,97754.53
2022-09-21T02:37:19.738Z,97753.56
2022-09-21T02:39:50.522Z,97750.00
2022-09-21T02:42:20.382Z,97749.16
2022-09-21T02:44:52.369Z,97746.53
2022-09-21T02:47:23.669Z,97752.78
2022-09-21T02:49:54.856Z,97759.91
2022-09-21T02:52:23.021Z,97759.91
2022-09-21T02:54:52.234Z,97749.22
2022-09-21T02:57:21.637Z,97752.88
2022-09-21T02:59:50.126Z,97756.50
2022-09-21T03:02:18.479Z,97760.06
2022-09-21T03:04:49.115Z,97747.53
2022-09-21T03:07:17.261Z,97755.56
2022-09-21T03:09:45.284Z,97755.56
2022-09-21T03:12:13.937Z,97768.13
2022-09-21T03:14:41.991Z,97761.88
2022-09-21T03:17:10.144Z,97759.19
2022-09-21T03:19:38.210Z,97765.53
2022-09-21T03:22:07.735Z,97779.84
2022-09-21T03:24:47.506Z,97776.19
2022-09-21T03:27:15.834Z,97779.84
2022-09-21T03:29:43.886Z,97777.16
2022-09-21T03:32:12.037Z,97780.78
2022-09-21T03:34:42.498Z,97779.03
2022-09-21T03:37:12.059Z,97788.03
2022-09-21T03:39:40.143Z,97791.59
2022-09-21T03:42:10.042Z,97783.53
2022-09-21T03:44:38.632Z,97781.78
2022-09-21T03:47:07.745Z,97782.56
2022-09-21T03:49:36.025Z,97778.28
2022-09-21T03:52:04.686Z,97782.66
2022-09-21T03:54:34.439Z,97783.63
2022-09-21T03:57:02.837Z,97780.84
2022-09-21T03:59:30.922Z,97780.84
2022-09-21T04:01:59.029Z,97785.34
2022-09-21T04:04:27.090Z,97792.53
2022-09-21T04:06:55.217Z,97794.38
2022-09-21T04:09:23.508Z,97794.44
2022-09-21T04:11:54.168Z,97793.50
2022-09-21T04:14:23.312Z,97800.53
2022-09-21T04:16:52.164Z,97801.34
2022-09-21T04:19:21.137Z,97794.22
2022-09-21T04:21:51.397Z,97800.47
2022-09-21T04:24:19.875Z,97789.72
2022-09-21T04:26:47.990Z,97790.59
2022-09-21T04:29:17.539Z,97791.44
2022-09-21T04:31:45.602Z,97792.31
2022-09-21T04:34:14.077Z,97790.50
2022-09-21T04:36:42.203Z,97788.69
2022-09-21T04:39:10.381Z,97789.53
2022-09-21T04:41:38.527Z,97785.13
2022-09-21T04:44:06.840Z,97790.91
2022-09-21T04:46:36.322Z,97794.22
2022-09-21T04:49:04.531Z,97805.06
2022-09-21T04:51:32.717Z,97811.28
2022-09-21T04:54:00.993Z,97812.25
2022-09-21T04:56:29.225Z,97807.91
2022-09-21T04:58:57.523Z,97814.31
2022-09-21T05:01:25.741Z,97819.88
2022-09-21T05:03:55.480Z,97818.06
2022-09-21T05:06:23.608Z,97813.47
2022-09-21T05:09:09.457Z,97811.56
2022-09-21T05:11:38.097Z,97817.78
2022-09-21T05:14:06.278Z,97810.50
2022-09-21T05:16:34.493Z,97818.50
2022-09-21T05:19:04.057Z,97813.97
2022-09-21T05:21:32.985Z,97818.38
2022-09-21T05:24:01.094Z,97821.06
2022-09-21T05:26:29.153Z,97827.31
2022-09-21T05:28:57.935Z,97824.63
2022-09-21T05:31:33.991Z,97828.16
2022-09-21T05:34:07.678Z,97830.78
2022-09-21T05:36:43.145Z,97840.75
2022-09-21T05:39:14.866Z,97837.00
2022-09-21T05:41:43.737Z,97837.97
2022-09-21T05:44:13.202Z,97844.22
2022-09-21T05:46:42.401Z,97837.88
2022-09-21T05:49:17.297Z,97846.03
2022-09-21T05:51:50.205Z,97850.53
2022-09-21T05:54:21.255Z,97852.28
2022-09-21T05:56:51.406Z,97854.75
2022-09-21T05:59:32.712Z,97852.94
2022-09-21T06:02:05.286Z,97855.63
2022-09-21T06:04:35.477Z,97863.69
2022-09-21T06:07:03.549Z,97857.34
2022-09-21T06:09:31.642Z,97855.53
2022-09-21T06:11:59.845Z,97863.50
2022-09-21T06:14:28.731Z,97857.19
2022-09-21T06:16:56.854Z,97859.88
2022-09-21T06:19:24.983Z,97863.44
2022-09-21T06:21:54.490Z,97860.75
2022-09-21T06:24:24.254Z,97863.44
2022-09-21T06:26:53.181Z,97874.19
2022-09-21T06:29:23.685Z,97866.28
2022-09-21T06:31:52.231Z,97866.53
2022-09-21T06:34:20.229Z,97861.34
2022-09-21T06:36:48.384Z,97866.72
2022-09-21T06:39:17.813Z,97859.72
2022-09-21T06:41:45.938Z,97869.50
2022-09-21T06:44:13.994Z,97860.59
2022-09-21T06:46:42.170Z,97863.25
2022-09-21T06:49:10.217Z,97862.28
2022-09-21T06:51:38.364Z,97852.44
2022-09-21T06:54:06.619Z,97860.47
2022-09-21T06:56:36.610Z,97857.81
2022-09-21T06:59:04.711Z,97860.38
2022-09-21T07:01:32.908Z,97858.56
2022-09-21T07:04:01.129Z,97846.03
2022-09-21T07:06:29.445Z,97853.09
2022-09-21T07:11:48.079Z,97844.13
2022-09-21T07:14:16.249Z,97842.38
2022-09-21T07:16:44.552Z,97847.75
2022-09-21T07:19:12.786Z,97846.81
2022-09-21T07:21:41.011Z,97834.25
2022-09-21T07:24:12.501Z,97841.34
2022-09-21T07:26:40.958Z,97842.22
2022-09-21T07:29:10.527Z,97843.09
2022-09-21T07:31:38.728Z,97843.09
2022-09-21T07:34:07.034Z,97840.31
2022-09-21T07:36:35.105Z,97840.31
2022-09-21T07:39:03.715Z,97841.19
2022-09-21T07:41:31.808Z,97838.50
2022-09-21T07:43:59.888Z,97847.38
2022-09-21T07:46:29.455Z,97843.78
2022-09-21T07:48:57.669Z,97840.41
2022-09-21T07:51:25.860Z,97836.84
2022-09-21T07:53:56.734Z,97839.94
2022-09-21T07:56:24.946Z,97831.81
2022-09-21T07:59:06.925Z,97835.97
2022-09-21T08:01:37.305Z,97842.91
2022-09-21T08:04:06.148Z,97842.72
2022-09-21T08:06:35.319Z,97833.72
2022-09-21T08:09:03.633Z,97830.94
2022-09-21T08:11:33.214Z,97846.91
2022-09-21T08:14:02.003Z,97843.34
2022-09-21T08:16:30.750Z,97840.56
2022-09-21T08:19:00.287Z,97844.13
2022-09-21T08:21:28.449Z,97844.91
2022-09-21T08:23:56.512Z,97840.31
2022-09-21T08:26:24.819Z,97838.50
2022-09-21T08:28:53.714Z,97836.66
2022-09-21T08:31:24.305Z,97844.66
2022-09-21T08:33:52.802Z,97845.47
2022-09-21T08:36:22.282Z,97848.16
2022-09-21T08:38:50.957Z,97850.84
2022-09-21T08:41:20.271Z,97846.34
2022-09-21T08:43:50.134Z,97846.34
2022-09-21T08:46:19.279Z,97846.34
2022-09-21T08:48:49.139Z,97849.03
2022-09-21T08:51:18.731Z,97846.34
2022-09-21T08:53:48.578Z,97840.97
2022-09-21T08:56:16.771Z,97843.56
2022-09-21T08:58:44.818Z,97848.09
2022-09-21T09:01:32.354Z,97845.41
2022-09-21T09:04:11.865Z,97847.13
2022-09-21T09:06:42.405Z,97849.81
2022-09-21T09:09:44.414Z,97844.44
2022-09-21T09:12:22.030Z,97849.72
2022-09-21T09:15:24.046Z,97846.25
2022-09-21T09:17:56.258Z,97844.44
2022-09-21T09:20:27.398Z,97850.69
2022-09-21T09:23:06.967Z,97840.81
2022-09-21T09:25:38.418Z,97836.28
2022-09-21T09:28:18.509Z,97829.16
2022-09-21T09:30:57.682Z,97829.16
2022-09-21T09:33:28.006Z,97830.88
2022-09-21T09:35:59.508Z,97817.47
2022-09-21T09:38:30.159Z,97828.22
2022-09-21T09:41:08.389Z,97824.53
2022-09-21T09:43:43.034Z,97819.19
2022-09-21T09:46:13.719Z,97826.28
2022-09-21T09:49:10.071Z,97825.41
2022-09-21T09:51:40.105Z,97820.06
2022-09-21T09:54:14.414Z,97816.38
2022-09-21T09:56:44.086Z,97815.47
2022-09-21T09:59:14.283Z,97803.72
2022-09-21T10:01:43.329Z,97811.72
2022-09-21T10:04:12.148Z,97812.56
2022-09-21T10:06:45.839Z,97800.00
2022-09-21T10:09:23.618Z,97802.59
2022-09-21T10:11:53.531Z,97812.41
2022-09-21T10:14:23.019Z,97804.34
2022-09-21T10:16:52.798Z,97805.13
2022-09-21T10:19:22.874Z,97805.13
2022-09-21T10:21:53.330Z,97805.13
2022-09-21T10:24:23.524Z,97800.69
2022-09-21T10:26:54.652Z,97800.63
2022-09-21T10:29:31.496Z,97798.78
2022-09-21T10:32:00.742Z,97801.47
2022-09-21T10:34:30.388Z,97801.56
2022-09-21T10:36:59.766Z,97797.94
2022-09-21T10:39:30.753Z,97791.69
2022-09-21T10:42:02.444Z,97794.38
2022-09-21T10:44:36.338Z,97798.88
2022-09-21T10:47:16.925Z,97797.16
2022-09-21T10:49:46.533Z,97798.88
2022-09-21T10:52:14.615Z,97792.56
2022-09-21T10:54:42.911Z,97780.94
2022-09-21T10:57:16.682Z,97765.69
2022-09-21T10:59:44.976Z,97797.06
2022-09-21T11:02:29.571Z,97789.00
2022-09-21T11:04:59.645Z,97796.09
2022-09-21T11:07:31.515Z,97797.06
2022-09-21T11:10:01.638Z,97794.38
2022-09-21T11:12:46.590Z,97803.31
2022-09-21T11:15:19.484Z,97795.25
2022-09-21T11:17:49.630Z,97798.78
2022-09-21T11:20:23.971Z,97803.31
2022-09-21T11:22:58.751Z,97800.63
2022-09-21T11:25:33.374Z,97794.28
2022-09-21T11:28:05.579Z,97798.72
2022-09-21T11:30:41.752Z,97784.41
2022-09-21T11:33:16.905Z,97776.25
2022-09-21T11:35:49.045Z,97778.06
2022-09-21T11:38:23.563Z,97771.84
2022-09-21T11:41:13.805Z,97785.19
2022-09-21T11:43:54.681Z,97785.19
2022-09-21T11:46:26.277Z,97793.25
2022-09-21T11:49:01.270Z,97786.13
2022-09-21T11:51:38.751Z,97791.50
2022-09-21T11:54:51.903Z,97788.81
2022-09-21T11:57:22.973Z,97787.97
2022-09-21T12:00:10.105Z,97785.28
2022-09-21T12:02:53.484Z,97794.28
2022-09-21T12:05:23.857Z,97786.22
2022-09-21T12:08:05.729Z,97788.03
2022-09-21T12:10:43.533Z,97785.34
2022-09-21T12:13:18.098Z,97782.66
2022-09-21T12:15:51.077Z,97784.50
2022-09-21T12:18:21.503Z,97780.94
2022-09-21T12:20:51.958Z,97773.81
2022-09-21T12:23:21.690Z,97783.63
2022-09-21T12:25:52.065Z,97779.19
2022-09-21T12:28:23.824Z,97789.00
2022-09-21T12:31:00.269Z,97773.75
2022-09-21T12:33:40.428Z,97786.31
2022-09-21T12:36:11.802Z,97781.81
2022-09-21T12:38:43.030Z,97780.84
2022-09-21T12:41:16.050Z,97775.47
2022-09-21T12:43:45.743Z,97779.97
2022-09-21T12:46:16.475Z,97778.16
2022-09-21T12:48:45.713Z,97781.72
2022-09-21T12:51:17.040Z,97778.16
2022-09-21T12:53:50.911Z,97770.09
2022-09-21T12:56:24.295Z,97771.91
2022-09-21T12:58:58.659Z,97770.66
2022-09-21T13:01:32.325Z,97769.50
2022-09-21T13:04:12.420Z,97777.22
2022-09-21T13:06:51.841Z,97775.78
2022-09-21T13:09:20.349Z,97769.53
2022-09-21T13:11:53.389Z,97774.75
2022-09-21T13:14:22.049Z,97774.53
2022-09-21T13:16:57.656Z,97766.31
2022-09-21T13:19:26.702Z,97768.81
2022-09-21T13:22:20.019Z,97773.25
2022-09-21T13:25:03.099Z,97762.50
2022-09-21T13:28:07.655Z,97763.34
2022-09-21T13:30:38.150Z,97761.53
2022-09-21T13:33:31.970Z,97757.13
2022-09-21T13:36:06.277Z,97757.13
2022-09-21T13:38:37.433Z,97757.97
2022-09-21T13:41:08.971Z,97752.59
2022-09-21T13:44:05.207Z,97754.34
2022-09-21T13:46:55.411Z,97748.00
2022-09-21T13:49:39.844Z,97750.69
2022-09-21T13:52:09.360Z,97747.16
2022-09-21T13:54:38.723Z,97747.16
2022-09-21T13:57:27.125Z,97751.56
2022-09-21T14:00:07.800Z,97745.31
2022-09-21T14:02:46.254Z,97745.31
2022-09-21T14:05:25.000Z,97743.50
2022-09-21T14:07:56.664Z,97740.06
2022-09-21T14:10:26.310Z,97740.06
2022-09-21T14:12:55.917Z,97736.50
2022-09-21T14:15:36.206Z,97739.19
2022-09-21T14:18:47.004Z,97739.13
2022-09-21T14:21:21.021Z,97727.50
2022-09-21T14:24:25.437Z,97725.69
2022-09-21T14:27:02.755Z,97731.91
2022-09-21T14:29:36.598Z,97736.31
2022-09-21T14:32:05.618Z,97738.03
2022-09-21T14:34:36.781Z,97727.28
2022-09-21T14:37:12.082Z,97727.28
2022-09-21T14:39:42.064Z,97730.84
2022-09-21T14:42:15.745Z,97734.41
2022-09-21T14:44:44.715Z,97729.03
2022-09-21T14:47:35.389Z,97733.44
2022-09-21T14:50:17.535Z,97733.44
2022-09-21T14:53:09.566Z,97733.44
2022-09-21T14:55:49.379Z,97728.06
2022-09-21T14:58:25.190Z,97729.91
2022-09-21T15:00:54.670Z,97719.16
2022-09-21T15:03:45.367Z,97725.47
2022-09-21T15:06:37.413Z,97722.78
2022-09-21T15:09:36.186Z,97726.81
2022-09-21T15:12:18.901Z,97726.47
2022-09-21T15:14:48.487Z,97719.75
2022-09-21T15:17:24.140Z,97718.34
2022-09-21T15:19:52.346Z,97725.50
2022-09-21T15:22:20.917Z,97731.56
2022-09-21T15:24:54.261Z,97727.91
2022-09-21T15:27:24.105Z,97736.53
2022-09-21T15:29:53.781Z,97720.19
2022-09-21T15:32:29.157Z,97723.88
2022-09-21T15:35:02.126Z,97722.88
2022-09-21T15:37:30.546Z,97732.47
2022-09-21T15:40:03.737Z,97727.88
2022-09-21T15:42:31.870Z,97724.19
2022-09-21T15:45:14.930Z,97732.13
2022-09-21T15:47:45.323Z,97724.88
2022-09-21T15:50:14.421Z,97731.09
2022-09-21T15:52:43.622Z,97734.63
2022-09-21T15:55:17.973Z,97733.78
2022-09-21T15:57:46.105Z,97734.63
2022-09-21T16:00:22.753Z,97738.28
2022-09-21T16:02:56.076Z,97738.28
2022-09-21T16:05:24.522Z,97745.34
2022-09-21T16:07:52.794Z,97745.34
2022-09-21T16:13:37.022Z,97743.63
2022-09-21T16:16:06.389Z,97753.34
2022-09-21T16:18:43.240Z,97748.66
2022-09-21T16:21:21.966Z,97751.97
2022-09-21T16:23:50.581Z,97757.09
2022-09-21T16:26:24.166Z,97757.88
2022-09-21T16:28:59.530Z,97756.84
2022-09-21T16:31:34.104Z,97771.03
2022-09-21T16:34:07.531Z,97771.88
2022-09-21T16:36:42.683Z,97766.59
2022-09-21T16:39:15.839Z,97774.56
2022-09-21T16:42:02.580Z,97773.53
2022-09-21T16:44:40.911Z,97775.19
2022-09-21T16:47:12.932Z,97778.66
2022-09-21T16:49:41.261Z,97780.38
2022-09-21T16:52:09.387Z,97786.50
2022-09-21T16:54:38.301Z,97790.94
2022-09-21T16:57:07.545Z,97784.59
2022-09-21T16:59:36.993Z,97784.53
2022-09-21T17:02:06.090Z,97784.44
2022-09-21T17:04:35.607Z,97781.75
2022-09-21T17:07:05.067Z,97788.00
2022-09-21T17:09:35.479Z,97785.22
2022-09-21T17:12:03.954Z,97790.50
2022-09-21T17:14:35.545Z,97793.97
2022-09-21T17:17:08.529Z,97797.53
2022-09-21T17:19:36.905Z,97806.34
2022-09-21T17:22:05.436Z,97808.94
2022-09-21T17:24:49.619Z,97807.22
2022-09-21T17:27:18.338Z,97803.56
2022-09-21T17:29:48.379Z,97808.00
2022-09-21T17:32:20.406Z,97809.81
2022-09-21T17:34:50.224Z,97814.22
2022-09-21T17:37:18.289Z,97825.84
2022-09-21T17:39:46.405Z,97825.75
2022-09-21T17:42:18.859Z,97829.31
2022-09-21T17:44:55.127Z,97831.06
2022-09-21T17:47:28.059Z,97833.72
2022-09-21T17:49:56.585Z,97835.44
2022-09-21T17:52:42.539Z,97831.81
2022-09-21T17:55:13.013Z,97839.00
2022-09-21T17:57:59.428Z,97837.19
2022-09-21T18:00:31.553Z,97843.41
2022-09-21T18:03:01.781Z,97846.97
2022-09-21T18:05:30.650Z,97849.66
2022-09-21T18:07:59.088Z,97849.56
2022-09-21T18:10:34.851Z,97847.75
2022-09-21T18:13:20.570Z,97853.13
2022-09-21T18:15:57.999Z,97846.88
2022-09-21T18:18:37.713Z,97862.06
2022-09-21T18:21:06.759Z,97860.25
2022-09-21T18:23:38.746Z,97861.97
2022-09-21T18:26:15.559Z,97867.31
2022-09-21T18:28:45.875Z,97870.00
2022-09-21T18:31:29.843Z,97874.84
2022-09-21T18:34:04.786Z,97880.22
2022-09-21T18:36:34.717Z,97886.38
2022-09-21T18:39:09.630Z,97874.69
2022-09-21T18:41:41.204Z,97878.16
2022-09-21T18:44:13.824Z,97880.84
2022-09-21T18:46:50.824Z,97879.03
2022-09-21T18:49:30.192Z,97886.13
2022-09-21T18:52:02.457Z,97879.88
2022-09-21T18:54:31.677Z,97879.88
2022-09-21T18:57:00.272Z,97879.81
2022-09-21T18:59:31.913Z,97887.78
2022-09-21T19:02:00.945Z,97881.53
2022-09-21T19:04:31.127Z,97886.31
2022-09-21T19:07:04.363Z,97886.47
2022-09-21T19:09:39.797Z,97889.16
2022-09-21T19:12:18.495Z,97893.50
2022-09-21T19:14:53.278Z,97898.75
2022-09-21T19:17:29.463Z,97898.75
2022-09-21T19:20:04.626Z,97897.84
2022-09-21T19:22:37.715Z,97891.50
2022-09-21T19:25:09.182Z,97899.53
2022-09-21T19:27:39.364Z,97894.84
2022-09-21T19:30:08.934Z,97895.72
2022-09-21T19:32:39.911Z,97892.81
2022-09-21T19:35:19.293Z,97894.13
2022-09-21T19:37:48.358Z,97891.06
2022-09-21T19:40:17.231Z,97893.38
2022-09-21T19:42:56.437Z,97893.09
2022-09-21T19:45:27.046Z,97897.34
2022-09-21T19:47:55.823Z,97898.06
2022-09-21T19:50:28.265Z,97897.88
2022-09-21T19:53:17.024Z,97907.59
2022-09-21T19:56:02.654Z,97909.25
2022-09-21T19:58:48.601Z,97908.28
2022-09-21T20:01:18.038Z,97909.06
2022-09-21T20:03:47.192Z,97902.75
2022-09-21T20:06:19.666Z,97909.84
2022-09-21T20:08:51.244Z,97906.22
2022-09-21T20:11:21.151Z,97904.38
2022-09-21T20:14:10.585Z,97903.34
2022-09-21T20:16:43.695Z,97906.03
2022-09-21T20:19:22.242Z,97902.47
2022-09-21T20:21:55.378Z,97914.00
2022-09-21T20:24:26.029Z,97924.75
2022-09-21T20:26:54.551Z,97915.75
2022-09-21T20:29:23.183Z,97921.13
2022-09-21T20:31:52.358Z,97918.44
2022-09-21T20:34:20.542Z,97920.16
2022-09-21T20:36:48.695Z,97931.78
2022-09-21T20:39:18.152Z,97926.41
2022-09-21T20:41:46.430Z,97936.25
2022-09-21T20:44:15.112Z,97927.38
2022-09-21T20:46:43.805Z,97929.19
2022-09-21T20:49:15.346Z,97933.69
2022-09-21T20:51:43.429Z,97935.47
2022-09-21T20:54:11.490Z,97933.75
2022-09-21T20:56:40.938Z,97927.44
2022-09-21T20:59:09.069Z,97931.09
2022-09-21T21:01:37.228Z,97928.41
2022-09-21T21:04:05.354Z,97931.97
2022-09-21T21:06:35.052Z,97936.44
2022-09-21T21:09:03.150Z,97938.25
2022-09-21T21:11:31.441Z,97936.44
2022-09-21T21:14:01.465Z,97938.34
2022-09-21T21:16:29.555Z,97939.22
2022-09-21T21:18:57.698Z,97944.59
2022-09-21T21:21:25.850Z,97941.91
2022-09-21T21:24:11.017Z,97943.72
2022-09-21T21:29:30.158Z,97922.25
2022-09-21T21:31:59.192Z,97932.09
2022-09-21T21:34:27.369Z,97935.66
2022-09-21T21:36:58.413Z,97928.53
2022-09-21T21:39:26.514Z,97920.50
2022-09-21T21:41:54.562Z,97921.47
2022-09-21T21:44:22.668Z,97928.53
2022-09-21T21:46:53.394Z,97927.69
2022-09-21T21:49:21.506Z,97917.91
2022-09-21T21:51:50.472Z,97920.59
2022-09-21T21:54:18.953Z,97914.34
2022-09-21T21:56:47.077Z,97919.72
2022-09-21T21:59:17.758Z,97920.69
2022-09-21T22:01:46.280Z,97917.13
2022-09-21T22:04:15.733Z,97916.25
2022-09-21T22:06:43.794Z,97917.13
2022-09-21T22:09:12.264Z,97921.63
2022-09-21T22:11:40.390Z,97922.50
2022-09-21T22:14:08.744Z,97914.53
2022-09-21T22:16:37.875Z,97918.09
2022-09-21T22:19:06.785Z,97912.72
2022-09-21T22:21:39.879Z,97913.66
2022-09-21T22:24:08.604Z,97914.53
2022-09-21T22:26:37.554Z,97917.22
2022-09-21T22:29:06.533Z,97922.56
2022-09-21T22:31:36.110Z,97914.53
2022-09-21T22:34:04.588Z,97919.03
2022-09-21T22:36:33.522Z,97915.47
2022-09-21T22:39:03.098Z,97917.31
2022-09-21T22:41:32.382Z,97918.16
2022-09-21T22:44:00.582Z,97918.16
2022-09-21T22:46:29.182Z,97911.94
2022-09-21T22:48:57.313Z,97910.19
2022-09-21T22:51:25.402Z,97904.81
2022-09-21T22:53:53.689Z,97906.63
2022-09-21T22:56:23.807Z,97904.81
2022-09-21T22:58:53.041Z,97900.41
2022-09-21T23:01:25.087Z,97896.84
2022-09-21T23:03:55.257Z,97894.16
2022-09-21T23:06:24.173Z,97895.03
2022-09-21T23:08:52.383Z,97894.16
2022-09-21T23:11:24.479Z,97897.78
2022-09-21T23:13:52.783Z,97895.09
2022-09-21T23:16:20.880Z,97893.38
2022-09-21T23:18:49.262Z,97899.63
2022-09-21T23:21:18.941Z,97893.38
2022-09-21T23:23:47.284Z,97886.25
2022-09-21T23:26:16.536Z,97895.19
2022-09-21T23:28:46.805Z,97887.13
2022-09-21T23:31:15.726Z,97885.44
2022-09-21T23:33:45.198Z,97886.25
2022-09-21T23:36:14.168Z,97885.44
2022-09-21T23:38:42.234Z,97882.75
2022-09-21T23:41:13.060Z,97882.75
2022-09-21T23:43:41.869Z,97881.88
2022-09-21T23:46:13.243Z,97875.63
2022-09-21T23:48:41.289Z,97881.00
2022-09-21T23:51:09.389Z,97878.22
2022-09-21T23:53:37.642Z,97886.34
2022-09-21T23:56:06.165Z,97887.22
2022-09-21T23:58:34.238Z,97885.47
